createdAt,value
2022-09-14T00:01:26.127Z,7
2022-09-14T00:16:05.745Z,7
2022-09-14T00:31:04.567Z,8
2022-09-14T00:46:05.270Z,7
2022-09-14T01:01:05.665Z,6
2022-09-14T01:16:05.017Z,7
2022-09-14T01:31:05.372Z,6
2022-09-14T01:46:04.960Z,7
2022-09-14T02:01:05.551Z,8
2022-09-14T02:16:05.745Z,6
2022-09-14T02:31:05.043Z,8
2022-09-14T02:46:05.586Z,9
2022-09-14T03:01:05.167Z,13
2022-09-14T03:16:06.077Z,10
2022-09-14T03:31:05.262Z,9
2022-09-14T03:46:05.784Z,10
2022-09-14T04:01:04.870Z,9
2022-09-14T04:16:05.398Z,11
2022-09-14T04:31:05.166Z,10
2022-09-14T04:46:05.402Z,12
2022-09-14T05:01:05.488Z,9
2022-09-14T05:16:05.352Z,10
2022-09-14T05:31:05.605Z,12
2022-09-14T05:46:05.140Z,11
2022-09-14T06:01:05.227Z,12
2022-09-14T06:16:04.967Z,11
2022-09-14T06:31:04.985Z,14
2022-09-14T06:46:05.335Z,11
2022-09-14T07:01:05.175Z,12
2022-09-14T07:16:05.343Z,12
2022-09-14T07:31:05.154Z,12
2022-09-14T07:46:05.581Z,14
2022-09-14T08:01:05.384Z,15
2022-09-14T08:16:05.702Z,15
2022-09-14T08:31:05.130Z,19
2022-09-14T08:46:05.354Z,13
2022-09-14T09:01:05.548Z,14
2022-09-14T09:16:05.808Z,13
2022-09-14T09:31:05.459Z,13
2022-09-14T09:46:05.122Z,11
2022-09-14T10:01:12.364Z,10
2022-09-14T10:16:06.119Z,11
2022-09-14T10:31:05.533Z,11
2022-09-14T10:46:05.038Z,10
2022-09-14T11:01:05.290Z,10
2022-09-14T11:16:05.183Z,10
2022-09-14T11:31:05.730Z,10
2022-09-14T11:46:05.611Z,11
2022-09-14T12:01:05.010Z,9
2022-09-14T12:16:05.878Z,14
2022-09-14T12:31:05.677Z,21
2022-09-14T12:46:04.840Z,14
2022-09-14T13:01:05.250Z,13
2022-09-14T13:16:05.262Z,13
2022-09-14T13:31:05.375Z,15
2022-09-14T13:46:05.322Z,13
2022-09-14T14:01:05.105Z,11
2022-09-14T14:16:05.372Z,13
2022-09-14T14:31:09.003Z,9
2022-09-14T14:46:05.541Z,12
2022-09-14T15:01:05.795Z,12
2022-09-14T15:16:05.232Z,13
2022-09-14T15:31:08.218Z,14
2022-09-14T15:46:05.502Z,16
2022-09-14T16:01:05.601Z,19
2022-09-14T16:16:05.296Z,24
2022-09-14T16:31:05.361Z,22
2022-09-14T16:46:05.705Z,19
2022-09-14T17:01:05.576Z,18
2022-09-14T17:16:05.049Z,16
2022-09-14T17:31:05.452Z,15
2022-09-14T17:46:05.684Z,16
2022-09-14T18:01:05.402Z,16
2022-09-14T18:16:05.696Z,20
2022-09-14T18:31:05.729Z,14
2022-09-14T18:46:05.173Z,15
2022-09-14T19:01:05.840Z,16
2022-09-14T19:16:05.787Z,19
2022-09-14T19:31:05.248Z,20
2022-09-14T19:46:05.184Z,25
2022-09-14T20:01:05.148Z,26
2022-09-14T20:16:06.079Z,27
2022-09-14T20:31:05.317Z,29
2022-09-14T20:46:05.992Z,30
2022-09-14T21:01:06.033Z,25
2022-09-14T21:16:05.916Z,21
2022-09-14T21:31:05.275Z,21
2022-09-14T21:46:05.928Z,23
2022-09-14T22:01:04.961Z,26
2022-09-14T22:16:05.895Z,24
2022-09-14T22:31:05.511Z,26
2022-09-14T22:46:06.016Z,26
2022-09-14T23:01:05.114Z,30
2022-09-14T23:16:05.567Z,31
2022-09-14T23:31:05.025Z,29
2022-09-14T23:46:05.480Z,34
